Bentley, Kansas
Current Conditions -  °F | °C
As of 8:23 PM on Wednesday 17 Dec 2014 (Local Time) from KICT Reporting Station
Haze Haze  
Wind Chill: 24°   Ceiling: 1700
Heat Index: 31°   Visibility: 5mi
Dew Point: 28°   Wind: 7mph
Humidity: 89%   Direction: 80°E
Pressure: 30.17"   Gusts: NA
Location:  37.89°N, 97.52°W
Report Text: KICT 180223Z 08006KT 5SM BR SCT006 BKN017 OVC032 M01/M02 A3017 RMK AO2 SNE22 P0000 T10061022 $
Loading
Personal Weather Stations






























Interactive Weather Map New forecast layout! Learn more

10-Day Weather Forecast

Advertisements
Track Severe Weather on mobile